Elkins, Arkansas
Current Conditions -  °F | °C
As of 3:53 PM on Friday 19 Dec 2014 (Local Time) from KFYV Reporting Station
Light Rain Light Rain  
Wind Chill: 41°   Ceiling: 900
Heat Index: 41°   Visibility: 2.5mi
Dew Point: 40°   Wind: 0mph
Humidity: 96%   Direction: NA
Pressure: 30.17"   Gusts: NA
Location:  36°N, 94.01°W
Report Text: KFYV 192153Z 00000KT 2 1/2SM -RA BR OVC009 05/04 A3017 RMK AO2 RAB15E29B46 SLP221 P0000 T00500044
Loading
Personal Weather Stations






























Interactive Weather Map New forecast layout! Learn more

10-Day Weather Forecast

Advertisements
Track Severe Weather on mobile